Time;durP1;ratioP1;P1;durP2;ratioP2;P2;SDS_P1;SDS_P2;PMS_P1;PMS_P2;Temp;Humidity;BMP_temperature;BMP_pressure;BME280_temperature;BME280_humidity;BME280_pressure;Samples;Min_cycle;Max_cycle;Signal;HPM_P1;HPM_P2
2021/11/15 00:02:26;;;;;;;12.02;7.10;;;;;;;11.00;89.38;101886.53;5054573;28;20048;-79
2021/11/15 00:04:53;;;;;;;8.25;5.57;;;;;;;11.03;89.36;101890.63;5041215;28;20044;-79
2021/11/15 00:07:20;;;;;;;8.23;5.55;;;;;;;11.06;89.39;101895.53;5056288;28;20127;-79
2021/11/15 00:09:47;;;;;;;8.88;5.85;;;;;;;11.08;89.48;101887.69;5025319;28;20098;-80
2021/11/15 00:12:14;;;;;;;7.40;5.35;;;;;;;11.10;89.72;101884.59;5059324;28;20084;-79
2021/11/15 00:14:41;;;;;;;8.38;5.82;;;;;;;11.10;89.46;101881.81;5055424;28;20113;-79
2021/11/15 00:17:08;;;;;;;10.90;7.00;;;;;;;11.11;89.60;101880.69;5055333;28;20052;-79
2021/11/15 00:19:35;;;;;;;12.05;8.50;;;;;;;11.12;89.62;101879.56;5058949;28;20068;-79
2021/11/15 00:22:04;;;;;;;10.38;7.35;;;;;;;11.13;89.59;101881.19;5050636;28;20121;-79
2021/11/15 00:24:31;;;;;;;9.95;6.50;;;;;;;11.15;89.65;101882.50;5055300;28;20045;-79
2021/11/15 00:27:00;;;;;;;10.45;7.05;;;;;;;11.15;89.62;101881.69;5052184;28;20087;-79
2021/11/15 00:29:27;;;;;;;15.90;8.88;;;;;;;11.15;89.69;101871.41;5041026;28;20045;-79
2021/11/15 00:31:55;;;;;;;11.85;7.93;;;;;;;11.16;89.69;101878.59;5051014;28;20140;-79
2021/11/15 00:34:22;;;;;;;10.43;6.13;;;;;;;11.16;89.75;101873.06;5053057;28;20481;-79
2021/11/15 00:36:49;;;;;;;9.02;5.50;;;;;;;11.17;89.55;101880.25;5056481;28;20141;-79
2021/11/15 00:39:16;;;;;;;6.32;5.30;;;;;;;11.18;89.81;101881.88;5041499;28;20091;-80
2021/11/15 00:41:44;;;;;;;6.40;4.63;;;;;;;11.20;89.88;101879.56;5051355;28;20025;-79
2021/11/15 00:44:11;;;;;;;5.63;3.70;;;;;;;11.24;89.84;101880.59;5055402;28;20076;-79
2021/11/15 00:46:39;;;;;;;5.65;3.80;;;;;;;11.27;89.84;101874.41;5054860;28;20060;-79
2021/11/15 00:49:06;;;;;;;11.50;3.63;;;;;;;11.29;90.05;101872.13;5057623;28;20373;-80
2021/11/15 00:51:33;;;;;;;5.43;2.97;;;;;;;11.31;89.75;101861.50;5050497;28;20123;-79
2021/11/15 00:54:00;;;;;;;3.78;3.20;;;;;;;11.33;90.05;101861.19;5053572;28;20040;-79
2021/11/15 00:56:27;;;;;;;4.97;3.30;;;;;;;11.34;90.06;101860.88;5054747;28;20033;-79
2021/11/15 00:58:54;;;;;;;9.27;4.25;;;;;;;11.35;89.91;101862.50;5057462;28;20480;-79
2021/11/15 01:01:21;;;;;;;4.90;2.67;;;;;;;11.37;90.15;101868.53;5043777;28;20056;-79
2021/11/15 01:03:49;;;;;;;4.30;3.38;;;;;;;11.40;90.30;101867.91;5058179;28;20135;-79
2021/11/15 01:06:16;;;;;;;3.63;2.60;;;;;;;11.42;90.14;101865.63;5054594;28;20036;-79
2021/11/15 01:08:43;;;;;;;5.07;2.80;;;;;;;11.45;90.10;101861.38;5059177;28;20119;-79
2021/11/15 01:11:10;;;;;;;4.78;3.10;;;;;;;11.48;90.24;101869.06;5049465;28;20068;-80
2021/11/15 01:13:40;;;;;;;5.22;3.05;;;;;;;11.50;90.38;101872.31;5055458;28;20053;-79
2021/11/15 01:16:08;;;;;;;7.10;3.45;;;;;;;11.51;90.39;101860.91;5030856;28;20044;-80
2021/11/15 01:18:39;;;;;;;7.40;3.60;;;;;;;11.53;90.49;101855.03;5057745;28;20131;-80
2021/11/15 01:21:07;;;;;;;8.60;3.65;;;;;;;11.55;90.41;101867.44;5057775;28;20513;-80
2021/11/15 01:23:36;;;;;;;6.20;3.80;;;;;;;11.55;90.76;101861.06;5052568;28;20484;-80
2021/11/15 01:26:06;;;;;;;7.93;3.88;;;;;;;11.56;90.93;101863.53;5056955;28;20424;-79
2021/11/15 01:28:35;;;;;;;7.20;3.75;;;;;;;11.57;91.08;101862.38;5060451;28;20040;-79
2021/11/15 01:31:03;;;;;;;8.65;3.83;;;;;;;11.60;91.40;101867.28;5054970;28;20049;-80
2021/11/15 01:33:30;;;;;;;7.93;4.00;;;;;;;11.61;91.49;101862.53;5035073;28;20064;-79
2021/11/15 01:35:56;;;;;;;8.85;3.70;;;;;;;11.61;91.91;101855.03;5055246;28;20044;-79
2021/11/15 01:38:23;;;;;;;9.65;5.07;;;;;;;11.63;91.99;101863.03;5036331;28;20116;-79
2021/11/15 01:40:50;;;;;;;7.22;3.90;;;;;;;11.65;92.23;101852.41;5054575;28;20119;-78
2021/11/15 01:43:17;;;;;;;8.90;3.72;;;;;;;11.67;92.44;101855.69;5025699;28;20365;-79
2021/11/15 01:45:44;;;;;;;7.63;4.00;;;;;;;11.69;92.82;101863.72;5055982;28;20139;-79
2021/11/15 01:48:13;;;;;;;8.25;4.55;;;;;;;11.71;92.96;101856.69;5064452;28;20115;-79
2021/11/15 01:50:41;;;;;;;9.73;4.32;;;;;;;11.72;92.98;101858.34;5041892;28;20090;-79
2021/11/15 01:53:09;;;;;;;7.25;3.20;;;;;;;11.75;93.16;101851.31;5060688;28;20029;-79
2021/11/15 01:55:38;;;;;;;8.85;4.38;;;;;;;11.76;93.27;101852.94;5041160;28;20057;-79
2021/11/15 01:58:08;;;;;;;6.82;3.65;;;;;;;11.77;93.53;101849.03;5040502;28;20032;-79
2021/11/15 02:00:42;;;;;;;8.35;3.78;;;;;;;11.79;93.66;101846.75;5052363;28;20033;-79
2021/11/15 02:03:10;;;;;;;6.85;4.13;;;;;;;11.80;93.75;101848.38;5039500;28;20041;-79
2021/11/15 02:05:38;;;;;;;7.47;3.53;;;;;;;11.81;93.80;101841.69;5055773;28;20067;-80
2021/11/15 02:08:06;;;;;;;7.97;3.70;;;;;;;11.81;93.52;101842.50;5043572;28;20378;-79
2021/11/15 02:10:33;;;;;;;6.75;3.60;;;;;;;11.81;94.08;101842.50;5060126;28;20063;-79
2021/11/15 02:13:00;;;;;;;9.00;4.00;;;;;;;11.81;94.19;101853.59;5037915;28;20041;-79
2021/11/15 02:15:27;;;;;;;10.50;5.47;;;;;;;11.79;94.06;101842.00;5034958;28;20388;-79
2021/11/15 02:17:54;;;;;;;13.65;5.10;;;;;;;11.77;94.13;101840.72;5056161;28;20098;-79
2021/11/15 02:20:23;;;;;;;8.50;4.68;;;;;;;11.76;94.12;101850.16;5040808;28;20157;-79
2021/11/15 02:22:52;;;;;;;6.35;4.00;;;;;;;11.74;94.18;101833.84;5054416;28;20071;-79
2021/11/15 02:25:25;;;;;;;7.53;4.30;;;;;;;11.74;94.26;101833.03;5056874;28;20059;-79
2021/11/15 02:27:53;;;;;;;6.28;3.60;;;;;;;11.73;94.15;101828.66;5042753;28;20045;-79
2021/11/15 02:30:24;;;;;;;6.68;4.82;;;;;;;11.73;94.53;101839.75;5037740;28;20123;-79
2021/11/15 02:32:51;;;;;;;9.50;4.93;;;;;;;11.73;94.43;101836.97;5061627;28;20045;-79
2021/11/15 02:35:19;;;;;;;11.50;4.85;;;;;;;11.73;94.36;101843.31;5038763;28;20091;-79
2021/11/15 02:37:47;;;;;;;8.15;3.88;;;;;;;11.75;94.63;101851.31;5041451;28;20482;-79
2021/11/15 02:40:17;;;;;;;5.32;3.33;;;;;;;11.76;94.67;101853.75;5057076;28;20076;-79
2021/11/15 02:42:46;;;;;;;9.25;3.75;;;;;;;11.78;94.75;101861.78;5060494;28;20060;-80
2021/11/15 02:45:16;;;;;;;4.90;3.25;;;;;;;11.80;94.69;101865.03;5048187;28;20044;-79
2021/11/15 02:47:43;;;;;;;6.47;3.95;;;;;;;11.81;94.79;101869.44;5053981;28;20048;-79
2021/11/15 02:50:16;;;;;;;7.22;3.80;;;;;;;11.81;94.92;101873.00;5057054;28;20064;-79
2021/11/15 02:52:46;;;;;;;9.50;3.97;;;;;;;11.83;94.95;101875.47;5061120;28;20048;-79
2021/11/15 02:55:14;;;;;;;7.85;4.80;;;;;;;11.84;95.04;101882.66;5051954;28;20045;-80
2021/11/15 02:57:41;;;;;;;9.18;5.53;;;;;;;11.87;95.06;101887.53;5038581;28;20060;-80
2021/11/15 03:00:25;;;;;;;8.02;3.97;;;;;;;11.87;95.20;101882.00;5057584;28;20096;-79
2021/11/15 03:02:55;;;;;;;8.23;5.38;;;;;;;11.89;95.14;101890.81;5042729;28;20923;-79
2021/11/15 03:05:30;;;;;;;8.38;3.78;;;;;;;11.90;95.54;101892.44;5053560;28;20123;-79
2021/11/15 03:07:58;;;;;;;7.90;3.60;;;;;;;11.92;95.39;101901.25;5042240;28;20093;-79
2021/11/15 03:10:25;;;;;;;7.40;4.35;;;;;;;11.92;95.84;101895.72;5039824;28;20200;-79
2021/11/15 03:12:53;;;;;;;9.57;5.13;;;;;;;11.92;95.81;101890.16;5060580;28;20128;-79
2021/11/15 03:15:31;;;;;;;10.80;4.95;;;;;;;11.93;96.04;101891.81;5035254;28;20185;-79
2021/11/15 03:18:00;;;;;;;8.63;4.20;;;;;;;11.92;95.82;101885.44;5043974;28;20040;-79
2021/11/15 03:20:32;;;;;;;12.43;4.95;;;;;;;11.91;95.86;101897.69;5056271;28;20040;-79
2021/11/15 03:22:59;;;;;;;6.97;4.57;;;;;;;11.91;95.67;101899.66;5042765;28;20033;-79
2021/11/15 03:25:27;;;;;;;9.40;5.03;;;;;;;11.90;95.84;101898.00;5057124;28;20067;-79
2021/11/15 03:27:56;;;;;;;9.10;4.20;;;;;;;11.88;95.78;101894.75;5061844;28;20064;-79
2021/11/15 03:30:24;;;;;;;6.88;4.35;;;;;;;11.87;95.95;101898.66;5051734;28;20742;-80
2021/11/15 03:32:52;;;;;;;6.70;3.95;;;;;;;11.87;96.04;101910.56;5060463;28;20504;-79
2021/11/15 03:35:19;;;;;;;5.72;2.88;;;;;;;11.85;96.40;101917.59;5040615;28;20400;-80
2021/11/15 03:37:46;;;;;;;1.58;1.27;;;;;;;11.81;95.98;101906.31;5037131;28;20059;-79
2021/11/15 03:40:20;;;;;;;1.15;1.00;;;;;;;11.75;95.83;101906.81;5062700;28;20060;-79
2021/11/15 03:42:56;;;;;;;0.65;0.50;;;;;;;11.68;95.35;101923.06;5056680;28;20041;-79
2021/11/15 03:45:24;;;;;;;0.40;0.30;;;;;;;11.63;95.43;101910.19;5055079;28;20100;-78
2021/11/15 03:47:51;;;;;;;0.65;0.20;;;;;;;11.56;95.00;101920.94;5053243;28;20140;-79
2021/11/15 03:50:18;;;;;;;0.82;0.20;;;;;;;11.50;95.02;101923.06;5055097;28;20037;-80
2021/11/15 03:52:46;;;;;;;0.75;0.30;;;;;;;11.48;94.67;101918.97;5058771;28;20091;-78
2021/11/15 03:55:17;;;;;;;1.13;0.30;;;;;;;11.44;94.92;101918.78;5039217;28;20048;-79
2021/11/15 03:57:44;;;;;;;1.23;0.57;;;;;;;11.40;94.68;101926.13;5046476;28;20079;-79
2021/11/15 04:00:15;;;;;;;0.50;0.30;;;;;;;11.37;94.66;101917.63;5049569;28;20730;-79
2021/11/15 04:02:45;;;;;;;0.28;0.10;;;;;;;11.34;94.82;101912.72;5056924;28;20120;-79
2021/11/15 04:05:12;;;;;;;0.30;0.10;;;;;;;11.30;94.59;101918.13;5039616;28;20032;-79
2021/11/15 04:07:42;;;;;;;1.48;0.20;;;;;;;11.26;94.67;101914.34;5053219;28;20140;-79
2021/11/15 04:10:16;;;;;;;1.85;0.20;;;;;;;11.27;94.56;101915.97;5050560;28;20042;-79
2021/11/15 04:12:44;;;;;;;0.43;0.28;;;;;;;11.28;94.48;101914.81;5056604;28;20549;-79
2021/11/15 04:15:13;;;;;;;1.42;0.20;;;;;;;11.27;94.23;101909.63;5057595;28;20105;-79
2021/11/15 04:17:43;;;;;;;1.13;0.30;;;;;;;11.25;94.37;101915.47;5054011;28;20122;-79
2021/11/15 04:20:12;;;;;;;1.45;0.35;;;;;;;11.27;94.25;101929.03;5040358;28;20486;-79
2021/11/15 04:22:39;;;;;;;0.40;0.20;;;;;;;11.28;94.11;101928.69;5024404;28;20041;-79
2021/11/15 04:25:07;;;;;;;1.13;0.30;;;;;;;11.29;94.02;101921.19;5059208;28;20048;-79
2021/11/15 04:27:35;;;;;;;0.73;0.30;;;;;;;11.29;94.00;101919.25;5058045;28;20091;-79
2021/11/15 04:30:04;;;;;;;1.55;0.32;;;;;;;11.30;94.13;101923.66;5056150;28;20059;-79
2021/11/15 04:32:31;;;;;;;0.70;0.20;;;;;;;11.28;93.47;101923.13;5042682;28;20388;-79
2021/11/15 04:34:57;;;;;;;1.42;0.17;;;;;;;11.28;93.80;101928.69;5049051;28;20107;-79
2021/11/15 04:37:24;;;;;;;2.72;1.20;;;;;;;11.30;93.61;101934.75;5051446;28;20042;-79
2021/11/15 04:39:53;;;;;;;1.25;0.35;;;;;;;11.30;93.80;101929.22;5037089;28;20094;-79
2021/11/15 04:42:20;;;;;;;0.20;0.20;;;;;;;11.32;93.69;101938.00;5025008;28;20064;-79
2021/11/15 04:44:47;;;;;;;0.40;0.40;;;;;;;11.35;93.50;101928.22;5055734;28;20213;-79
2021/11/15 04:47:14;;;;;;;0.52;0.40;;;;;;;11.37;93.28;101932.31;5053389;28;20379;-79
2021/11/15 04:49:41;;;;;;;1.17;0.55;;;;;;;11.35;93.38;101934.59;5052021;28;20060;-79
2021/11/15 04:52:08;;;;;;;0.98;0.93;;;;;;;11.36;93.39;101946.47;5055283;28;20040;-79
2021/11/15 04:54:35;;;;;;;5.28;1.27;;;;;;;11.35;93.04;101947.63;5049970;28;20041;-79
2021/11/15 04:57:02;;;;;;;3.00;1.15;;;;;;;11.35;93.23;101945.69;5060477;28;20045;-79
2021/11/15 04:59:29;;;;;;;4.15;1.00;;;;;;;11.35;93.04;101947.63;5058045;28;20049;-79
2021/11/15 05:01:55;;;;;;;0.90;0.80;;;;;;;11.35;93.06;101953.19;5057237;28;20504;-79
2021/11/15 05:04:22;;;;;;;0.93;0.70;;;;;;;11.35;93.14;101958.72;5052706;28;20055;-79
2021/11/15 05:06:54;;;;;;;1.65;0.70;;;;;;;11.35;93.01;101947.63;5049884;28;20044;-79
2021/11/15 05:09:22;;;;;;;1.30;0.65;;;;;;;11.34;92.62;101944.03;5050330;28;20131;-79
2021/11/15 05:11:49;;;;;;;0.52;0.40;;;;;;;11.34;92.65;101946.00;5057263;28;20040;-79
2021/11/15 05:14:15;;;;;;;3.50;0.65;;;;;;;11.33;92.74;101934.09;5056607;28;20037;-79
2021/11/15 05:16:42;;;;;;;1.63;0.60;;;;;;;11.30;92.84;101943.06;5041911;28;20526;-79
2021/11/15 05:19:09;;;;;;;4.22;0.80;;;;;;;11.28;92.98;101945.31;5043857;28;20044;-79
2021/11/15 05:21:36;;;;;;;2.08;0.70;;;;;;;11.27;93.18;101949.25;5057703;28;20048;-80
2021/11/15 05:24:03;;;;;;;2.35;0.43;;;;;;;11.28;93.08;101953.63;5059397;28;20041;-79
2021/11/15 05:26:30;;;;;;;0.45;0.38;;;;;;;11.28;93.17;101950.06;5058963;28;20291;-80
2021/11/15 05:28:57;;;;;;;1.08;0.35;;;;;;;11.28;92.94;101947.31;5038613;28;20086;-79
2021/11/15 05:31:24;;;;;;;0.85;0.38;;;;;;;11.27;93.04;101949.25;5055972;28;20040;-80
2021/11/15 05:33:51;;;;;;;2.25;0.70;;;;;;;11.22;93.08;101952.16;5037729;28;20121;-80
2021/11/15 05:36:18;;;;;;;1.38;0.45;;;;;;;11.21;92.89;101964.38;5049858;28;20091;-80
2021/11/15 05:38:45;;;;;;;0.57;0.40;;;;;;;11.21;93.02;101961.59;5052099;28;20485;-79
2021/11/15 05:41:12;;;;;;;0.73;0.40;;;;;;;11.21;93.09;101964.38;5045576;28;20044;-80
2021/11/15 05:43:39;;;;;;;2.15;0.70;;;;;;;11.20;93.00;101953.63;5054736;28;20427;-80
2021/11/15 05:46:06;;;;;;;2.42;0.55;;;;;;;11.18;92.83;101959.47;5053191;28;20116;-80
2021/11/15 05:48:33;;;;;;;4.25;0.77;;;;;;;11.17;92.96;101966.16;5058021;28;20400;-80
2021/11/15 05:51:00;;;;;;;2.20;0.70;;;;;;;11.16;92.64;101967.28;5031672;28;20045;-80
2021/11/15 05:53:27;;;;;;;4.38;0.93;;;;;;;11.14;92.92;101974.31;5052466;28;20041;-80
2021/11/15 05:55:53;;;;;;;0.88;0.68;;;;;;;11.11;92.87;101980.47;5052278;28;20045;-80
2021/11/15 05:58:20;;;;;;;1.73;1.05;;;;;;;11.10;92.97;101984.38;5052406;28;20057;-80
2021/11/15 06:00:48;;;;;;;0.93;0.60;;;;;;;11.09;92.82;101978.03;5034552;28;20049;-79
2021/11/15 06:03:15;;;;;;;0.60;0.60;;;;;;;11.07;92.95;101963.66;5013113;28;20034;-80
2021/11/15 06:05:42;;;;;;;1.83;0.47;;;;;;;11.09;92.94;101966.94;5036071;28;20119;-80
2021/11/15 06:08:09;;;;;;;1.00;0.38;;;;;;;11.11;92.95;101963.84;5053365;28;20484;-79
2021/11/15 06:10:36;;;;;;;1.20;0.65;;;;;;;11.11;92.64;101972.97;5034058;28;20044;-79
2021/11/15 06:13:05;;;;;;;0.65;0.43;;;;;;;11.10;92.63;101979.66;5050045;28;20098;-80
2021/11/15 06:15:32;;;;;;;3.08;0.30;;;;;;;11.07;92.80;101988.59;5033835;28;20106;-79
2021/11/15 06:17:59;;;;;;;4.30;0.52;;;;;;;11.07;92.87;101988.59;5050285;28;20122;-80
2021/11/15 06:20:26;;;;;;;1.95;0.30;;;;;;;11.08;92.66;101997.75;5050795;28;20040;-80
2021/11/15 06:22:53;;;;;;;0.98;0.50;;;;;;;11.09;92.74;102004.94;5035322;28;20040;-80
2021/11/15 06:25:20;;;;;;;1.83;0.55;;;;;;;11.07;92.68;102007.22;5050893;28;20094;-80
2021/11/15 06:27:49;;;;;;;0.68;0.50;;;;;;;11.07;92.63;102009.97;5048007;28;20037;-79
2021/11/15 06:30:19;;;;;;;0.60;0.47;;;;;;;11.07;92.53;102016.31;5050173;28;20075;-79
2021/11/15 06:32:46;;;;;;;1.33;0.63;;;;;;;11.08;92.75;102014.38;5043048;28;20480;-79
2021/11/15 06:35:14;;;;;;;0.35;0.35;;;;;;;11.07;92.54;102019.09;5055401;28;20060;-80
2021/11/15 06:37:43;;;;;;;2.75;0.60;;;;;;;11.03;92.52;102007.00;5052510;28;20062;-79
2021/11/15 06:40:11;;;;;;;2.65;0.50;;;;;;;11.04;92.61;102016.94;5014354;28;20084;-80
2021/11/15 06:42:38;;;;;;;1.55;0.50;;;;;;;11.02;92.29;102016.44;5036497;28;20053;-80
2021/11/15 06:45:06;;;;;;;0.75;0.40;;;;;;;11.01;92.33;102026.72;5055164;28;20119;-79
2021/11/15 06:47:36;;;;;;;1.33;0.50;;;;;;;11.01;92.55;102028.69;5035363;28;20424;-79
2021/11/15 06:50:06;;;;;;;2.40;0.60;;;;;;;10.98;92.22;102030.16;5052178;28;20484;-80
2021/11/15 06:52:33;;;;;;;3.70;0.70;;;;;;;10.97;92.32;102038.75;5057571;28;20097;-79
2021/11/15 06:55:01;;;;;;;2.72;0.55;;;;;;;10.95;92.50;102044.63;5031939;28;20068;-79
2021/11/15 06:57:28;;;;;;;4.28;1.50;;;;;;;10.94;92.37;102053.25;5056515;28;20029;-79
2021/11/15 06:59:57;;;;;;;4.65;1.38;;;;;;;10.94;92.36;102044.91;5050005;28;20040;-79
2021/11/15 07:02:23;;;;;;;2.65;0.73;;;;;;;10.93;92.34;102043.31;5052181;28;20068;-79
2021/11/15 07:04:51;;;;;;;2.22;0.50;;;;;;;10.90;92.45;102036.44;5057140;28;20041;-79
2021/11/15 07:07:17;;;;;;;0.77;0.60;;;;;;;10.91;92.43;102045.56;5054195;28;20362;-79
2021/11/15 07:09:47;;;;;;;1.27;0.52;;;;;;;10.91;92.73;102042.78;5058933;28;20055;-79
2021/11/15 07:12:14;;;;;;;0.93;0.60;;;;;;;10.92;92.52;102039.72;5037775;28;20373;-81
2021/11/15 07:14:41;;;;;;;1.60;0.70;;;;;;;10.92;92.42;102038.88;5054506;28;20072;-79
2021/11/15 07:17:08;;;;;;;4.00;0.90;;;;;;;10.92;92.41;102049.97;5055559;28;20131;-79
2021/11/15 07:19:37;;;;;;;2.30;0.85;;;;;;;10.93;92.52;102057.16;5054846;28;20076;-79
2021/11/15 07:22:23;;;;;;;1.25;0.90;;;;;;;10.94;92.43;102064.31;5041130;28;20037;-79
2021/11/15 07:24:50;;;;;;;10.95;2.03;;;;;;;10.95;92.31;102063.19;5054556;28;20086;-79
2021/11/15 07:27:17;;;;;;;1.75;1.00;;;;;;;10.94;92.20;102069.88;5056353;28;20122;-80
2021/11/15 07:29:44;;;;;;;2.35;1.30;;;;;;;10.93;92.30;102073.78;5054475;28;20049;-80
2021/11/15 07:32:13;;;;;;;4.10;1.60;;;;;;;10.93;92.31;102084.88;5055616;28;20128;-79
2021/11/15 07:34:41;;;;;;;3.80;1.50;;;;;;;10.91;92.22;102078.81;5058725;28;20036;-79
2021/11/15 07:37:09;;;;;;;2.80;1.38;;;;;;;10.91;92.49;102089.88;5059192;28;20484;-79
2021/11/15 07:39:43;;;;;;;6.47;1.50;;;;;;;10.91;92.33;102092.66;5022444;28;20045;-79
2021/11/15 07:42:13;;;;;;;5.57;1.13;;;;;;;10.90;92.28;102091.88;5061728;28;20546;-80
2021/11/15 07:44:40;;;;;;;1.80;1.13;;;;;;;10.91;92.66;102092.66;5060137;28;20068;-79
2021/11/15 07:47:07;;;;;;;2.55;1.48;;;;;;;10.92;92.32;102097.91;5058256;28;20048;-79
2021/11/15 07:49:34;;;;;;;2.72;1.83;;;;;;;10.92;92.43;102108.16;5035847;28;20524;-79
2021/11/15 07:52:02;;;;;;;3.50;2.03;;;;;;;10.93;92.35;102109.81;5053780;28;20415;-79
2021/11/15 07:54:29;;;;;;;3.42;2.05;;;;;;;10.95;92.54;102107.53;5060734;28;20029;-79
2021/11/15 07:56:57;;;;;;;5.35;2.35;;;;;;;10.96;92.58;102100.88;5056594;28;20067;-79
2021/11/15 07:59:24;;;;;;;5.55;2.00;;;;;;;11.00;92.50;102104.63;5056988;28;20158;-79
2021/11/15 08:01:51;;;;;;;5.70;2.00;;;;;;;11.00;92.55;102108.22;5024680;28;20377;-79
2021/11/15 08:04:18;;;;;;;2.85;1.95;;;;;;;10.98;92.48;102099.41;5057432;28;20044;-79
2021/11/15 08:06:45;;;;;;;3.22;2.50;;;;;;;10.99;92.63;102101.03;5041159;28;20135;-79
2021/11/15 08:09:13;;;;;;;3.33;2.00;;;;;;;11.00;92.63;102107.41;5042778;28;20124;-79
2021/11/15 08:11:44;;;;;;;2.88;1.98;;;;;;;10.99;92.47;102114.06;5038939;28;20048;-80
2021/11/15 08:14:12;;;;;;;3.97;2.03;;;;;;;10.99;92.60;102119.59;5041862;28;20052;-79
2021/11/15 08:16:39;;;;;;;3.40;1.73;;;;;;;10.99;92.53;102127.94;5043227;28;20431;-79
2021/11/15 08:19:06;;;;;;;4.57;1.70;;;;;;;10.98;92.72;102116.03;5059730;28;20032;-79
2021/11/15 08:21:33;;;;;;;4.95;1.67;;;;;;;10.99;92.43;102127.94;5036068;28;20061;-80
2021/11/15 08:24:21;;;;;;;4.10;1.48;;;;;;;10.99;92.40;102122.38;5031219;28;20036;-83
2021/11/15 08:26:58;;;;;;;3.78;1.58;;;;;;;10.98;92.32;102126.31;5033872;28;20045;-79
2021/11/15 08:29:26;;;;;;;3.70;2.00;;;;;;;10.99;92.33;102125.16;5057040;28;20128;-79
2021/11/15 08:31:58;;;;;;;3.97;1.83;;;;;;;10.99;92.22;102123.22;5039104;28;20119;-78
2021/11/15 08:34:32;;;;;;;1.80;1.40;;;;;;;10.98;91.88;102126.31;5043301;28;20122;-79
2021/11/15 08:37:00;;;;;;;7.40;1.42;;;;;;;10.95;92.06;102132.47;5032560;28;20136;-80
2021/11/15 08:39:30;;;;;;;8.18;1.77;;;;;;;10.96;92.00;102134.13;5050116;28;20424;-79
2021/11/15 08:42:00;;;;;;;7.60;1.60;;;;;;;10.98;91.85;102135.44;5054516;28;20045;-82
2021/11/15 08:44:29;;;;;;;6.05;3.05;;;;;;;10.98;92.04;102135.44;5039333;28;20036;-82
2021/11/15 08:46:57;;;;;;;4.35;1.95;;;;;;;10.98;92.17;102142.94;5040554;28;20427;-82
2021/11/15 08:49:29;;;;;;;7.45;1.55;;;;;;;10.95;91.71;102147.16;5037454;28;20506;-81
2021/11/15 08:52:02;;;;;;;5.63;1.60;;;;;;;10.93;91.47;102148.59;5057883;28;20755;-84
2021/11/15 08:54:34;;;;;;;4.05;1.70;;;;;;;10.89;91.09;102151.16;5053383;28;20084;-83
2021/11/15 08:57:04;;;;;;;4.03;1.40;;;;;;;10.86;91.04;102162.03;5042535;28;20064;-79
2021/11/15 08:59:43;;;;;;;5.63;1.65;;;;;;;10.84;91.25;102161.53;5054773;28;20037;-79
2021/11/15 09:02:13;;;;;;;8.65;1.95;;;;;;;10.81;90.87;102165.75;5055490;28;20041;-79
2021/11/15 09:04:40;;;;;;;6.75;2.28;;;;;;;10.80;90.98;102169.66;5059356;28;20040;-79
2021/11/15 09:07:08;;;;;;;8.57;1.98;;;;;;;10.75;90.55;102167.00;5033631;28;20534;-84
2021/11/15 09:09:35;;;;;;;3.55;2.08;;;;;;;10.75;90.60;102174.53;5053128;28;20071;-84
2021/11/15 09:12:05;;;;;;;4.40;1.80;;;;;;;10.76;90.79;102176.13;5054656;28;20499;-79
2021/11/15 09:14:33;;;;;;;2.47;1.77;;;;;;;10.78;90.74;102179.41;5051122;28;20128;-80
2021/11/15 09:16:59;;;;;;;5.47;2.10;;;;;;;10.82;90.75;102183.22;5041145;28;20090;-80
2021/11/15 09:19:26;;;;;;;4.00;2.75;;;;;;;10.85;90.81;102185.38;5053240;28;20448;-80
2021/11/15 09:21:54;;;;;;;5.60;2.38;;;;;;;10.87;90.94;102191.41;5057029;28;20064;-80
2021/11/15 09:24:22;;;;;;;13.57;3.58;;;;;;;10.91;91.05;102184.09;5040719;28;20079;-80
2021/11/15 09:26:49;;;;;;;8.00;3.38;;;;;;;10.93;91.38;102190.97;5056672;28;20037;-80
2021/11/15 09:29:18;;;;;;;7.40;2.72;;;;;;;10.98;91.28;102190.03;5058946;28;20060;-80
2021/11/15 09:31:46;;;;;;;8.95;2.63;;;;;;;10.99;91.34;102194.44;5042601;28;20052;-80
2021/11/15 09:34:13;;;;;;;7.30;3.03;;;;;;;10.99;91.21;102189.72;5060102;28;20116;-80
2021/11/15 09:36:41;;;;;;;7.57;2.35;;;;;;;11.02;91.21;102194.63;5060182;28;20435;-83
2021/11/15 09:39:08;;;;;;;9.75;3.10;;;;;;;11.08;91.05;102187.03;5050116;28;20477;-86
2021/11/15 09:41:36;;;;;;;7.30;2.90;;;;;;;11.08;91.07;102186.19;5054942;28;20124;-84
2021/11/15 09:44:04;;;;;;;13.23;3.53;;;;;;;11.08;90.88;102175.94;5038687;28;20032;-84
2021/11/15 09:46:32;;;;;;;8.77;3.42;;;;;;;11.05;90.87;102176.56;5055072;28;20453;-83
2021/11/15 09:49:09;;;;;;;6.78;3.35;;;;;;;11.07;90.74;102167.94;5051745;28;20473;-83
2021/11/15 09:51:39;;;;;;;9.50;3.63;;;;;;;11.06;90.48;102186.53;5055745;28;20057;-84
2021/11/15 09:54:07;;;;;;;9.93;4.10;;;;;;;11.04;90.43;102169.38;5036192;28;20177;-84
2021/11/15 09:56:34;;;;;;;7.63;4.18;;;;;;;11.02;90.65;102172.47;5031950;28;20041;-84
2021/11/15 09:59:02;;;;;;;7.50;3.22;;;;;;;11.04;90.58;102174.91;5055682;28;20064;-82
2021/11/15 10:01:29;;;;;;;8.93;3.63;;;;;;;11.06;90.58;102172.66;5034447;28;20063;-83
2021/11/15 10:03:56;;;;;;;6.82;3.35;;;;;;;11.09;90.54;102172.03;5060023;28;20041;-84
2021/11/15 10:06:23;;;;;;;6.25;3.20;;;;;;;11.11;90.55;102168.94;5061779;28;20040;-84
2021/11/15 10:08:53;;;;;;;10.38;3.58;;;;;;;11.13;90.75;102173.03;5043888;28;20506;-84
2021/11/15 10:11:23;;;;;;;9.73;2.92;;;;;;;11.20;90.73;102178.94;5041773;28;20041;-83
2021/11/15 10:13:51;;;;;;;8.05;3.90;;;;;;;11.30;90.78;102181.50;5051887;28;20040;-84
2021/11/15 10:16:26;;;;;;;7.53;2.95;;;;;;;11.40;90.53;102188.72;5021075;28;20064;-82
2021/11/15 10:18:58;;;;;;;5.75;2.70;;;;;;;11.44;90.41;102189.72;5046125;28;20053;-81
2021/11/15 10:21:42;;;;;;;4.82;3.10;;;;;;;11.42;89.86;102173.41;5029377;28;20048;-83
2021/11/15 10:24:12;;;;;;;6.00;2.50;;;;;;;11.39;89.86;102170.44;5058587;28;20047;-83
2021/11/15 10:26:46;;;;;;;4.25;2.28;;;;;;;11.39;89.75;102174.03;5053024;28;20067;-84
2021/11/15 10:29:15;;;;;;;6.38;2.63;;;;;;;11.37;89.54;102176.31;5041076;28;20068;-83
2021/11/15 10:31:51;;;;;;;16.15;4.03;;;;;;;11.37;89.17;102159.69;5054934;28;20029;-84
2021/11/15 10:34:27;;;;;;;5.13;2.03;;;;;;;11.37;88.94;102162.47;5061369;28;20033;-83
2021/11/15 10:37:02;;;;;;;5.78;2.08;;;;;;;11.38;88.72;102164.09;5058992;28;20034;-83
2021/11/15 10:39:37;;;;;;;6.93;2.95;;;;;;;11.38;88.66;102163.28;5064537;28;20041;-84
2021/11/15 10:42:11;;;;;;;4.97;1.63;;;;;;;11.40;88.58;102167.38;5053150;28;20036;-84
2021/11/15 10:44:45;;;;;;;5.60;2.17;;;;;;;11.43;88.30;102155.66;5054998;28;20112;-83
2021/11/15 10:47:12;;;;;;;10.90;3.03;;;;;;;11.47;88.29;102159.41;5056471;28;20040;-83
2021/11/15 10:49:41;;;;;;;6.80;4.05;;;;;;;11.51;87.91;102156.84;5056957;28;20037;-83
2021/11/15 10:52:14;;;;;;;7.43;3.15;;;;;;;11.60;88.00;102155.75;5033775;28;20123;-83
2021/11/15 10:55:02;;;;;;;3.38;1.90;;;;;;;11.77;88.02;102165.31;5040776;28;20094;-84
2021/11/15 10:57:31;;;;;;;6.32;2.10;;;;;;;11.94;87.96;102165.44;5043476;28;20449;-83
2021/11/15 11:00:08;;;;;;;8.55;2.78;;;;;;;12.01;87.36;102163.00;5038058;28;20396;-83
2021/11/15 11:02:42;;;;;;;4.97;2.50;;;;;;;12.06;87.38;102165.63;5056451;28;20045;-84
2021/11/15 11:05:14;;;;;;;7.40;2.10;;;;;;;12.07;86.76;102167.28;5059795;28;20060;-82
2021/11/15 11:07:45;;;;;;;7.95;1.77;;;;;;;12.04;86.81;102165.13;5040679;28;20029;-85
2021/11/15 11:10:21;;;;;;;9.57;2.33;;;;;;;12.00;86.64;102169.69;5035342;28;20163;-84
2021/11/15 11:12:59;;;;;;;7.93;2.20;;;;;;;11.95;86.21;102167.03;5055059;28;20509;-83
2021/11/15 11:15:34;;;;;;;10.13;2.40;;;;;;;11.93;86.12;102174.88;5054400;28;20123;-84
2021/11/15 11:18:11;;;;;;;8.63;2.72;;;;;;;11.88;85.66;102172.25;5042568;28;20049;-83
2021/11/15 11:26:37;;;;;;;4.85;2.10;;;;;;;11.91;85.70;102183.53;5052250;28;20131;-84
2021/11/15 11:29:12;;;;;;;7.93;2.30;;;;;;;11.93;85.68;102174.88;5065952;28;20043;-84
2021/11/15 11:31:44;;;;;;;11.93;3.03;;;;;;;12.00;85.90;102178.00;5059769;28;20056;-82
2021/11/15 11:34:15;;;;;;;8.73;2.95;;;;;;;12.08;85.71;102183.59;5056431;28;20041;-84
2021/11/15 11:36:42;;;;;;;3.25;1.50;;;;;;;12.18;85.65;102186.09;5034027;28;20056;-84
2021/11/15 11:39:11;;;;;;;9.30;2.53;;;;;;;12.23;85.19;102180.38;5050269;28;20585;-84